sensor_id;sensor_type;location;lat;lon;timestamp;pressure;altitude;pressure_sealevel;temperature;humidity
25084;BME280;13075;55.682;37.564;2022-11-20T00:03:34;99611.31;;;-0.87;100.00
25084;BME280;13075;55.682;37.564;2022-11-20T00:06:10;99616.59;;;-0.87;100.00
25084;BME280;13075;55.682;37.564;2022-11-20T00:08:36;99606.50;;;-1.02;100.00
25084;BME280;13075;55.682;37.564;2022-11-20T00:11:16;99608.44;;;-1.04;100.00
25084;BME280;13075;55.682;37.564;2022-11-20T00:13:47;99605.41;;;-1.00;100.00
25084;BME280;13075;55.682;37.564;2022-11-20T00:16:14;99610.03;;;-0.92;100.00
25084;BME280;13075;55.682;37.564;2022-11-20T00:18:40;99614.78;;;-0.86;100.00
25084;BME280;13075;55.682;37.564;2022-11-20T00:21:11;99610.41;;;-0.97;100.00
25084;BME280;13075;55.682;37.564;2022-11-20T00:23:37;99616.09;;;-0.81;100.00
25084;BME280;13075;55.682;37.564;2022-11-20T00:26:08;99616.25;;;-0.93;100.00
25084;BME280;13075;55.682;37.564;2022-11-20T00:28:34;99621.97;;;-0.88;100.00
25084;BME280;13075;55.682;37.564;2022-11-20T00:31:05;99617.75;;;-1.11;100.00
25084;BME280;13075;55.682;37.564;2022-11-20T00:33:31;99620.38;;;-1.11;100.00
25084;BME280;13075;55.682;37.564;2022-11-20T00:36:01;99618.72;;;-1.12;100.00
25084;BME280;13075;55.682;37.564;2022-11-20T00:38:27;99617.25;;;-1.05;100.00
25084;BME280;13075;55.682;37.564;2022-11-20T00:41:01;99626.00;;;-1.16;100.00
25084;BME280;13075;55.682;37.564;2022-11-20T00:43:27;99622.97;;;-1.32;100.00
25084;BME280;13075;55.682;37.564;2022-11-20T00:46:03;99620.78;;;-1.27;100.00
25084;BME280;13075;55.682;37.564;2022-11-20T00:48:29;99611.25;;;-1.28;100.00
25084;BME280;13075;55.682;37.564;2022-11-20T00:50:56;99617.72;;;-1.32;100.00
25084;BME280;13075;55.682;37.564;2022-11-20T00:53:22;99622.72;;;-1.29;100.00
25084;BME280;13075;55.682;37.564;2022-11-20T00:58:24;99621.50;;;-1.36;100.00
25084;BME280;13075;55.682;37.564;2022-11-20T01:03:46;99620.34;;;-1.43;100.00
25084;BME280;13075;55.682;37.564;2022-11-20T01:06:16;99626.44;;;-1.43;100.00
25084;BME280;13075;55.682;37.564;2022-11-20T01:08:43;99626.53;;;-1.44;100.00
25084;BME280;13075;55.682;37.564;2022-11-20T01:11:11;99618.81;;;-1.57;100.00
25084;BME280;13075;55.682;37.564;2022-11-20T01:13:38;99613.19;;;-1.52;100.00
25084;BME280;13075;55.682;37.564;2022-11-20T01:16:15;99634.31;;;-1.43;100.00
25084;BME280;13075;55.682;37.564;2022-11-20T01:18:43;99619.97;;;-1.39;100.00
25084;BME280;13075;55.682;37.564;2022-11-20T01:21:12;99625.13;;;-1.48;100.00
25084;BME280;13075;55.682;37.564;2022-11-20T01:23:39;99619.03;;;-1.49;100.00
25084;BME280;13075;55.682;37.564;2022-11-20T01:26:07;99622.50;;;-1.37;100.00
25084;BME280;13075;55.682;37.564;2022-11-20T01:28:33;99613.78;;;-1.38;100.00
25084;BME280;13075;55.682;37.564;2022-11-20T01:31:00;99614.84;;;-1.40;100.00
25084;BME280;13075;55.682;37.564;2022-11-20T01:33:26;99613.69;;;-1.47;100.00
25084;BME280;13075;55.682;37.564;2022-11-20T01:35:52;99623.34;;;-1.48;100.00
25084;BME280;13075;55.682;37.564;2022-11-20T01:38:18;99622.25;;;-1.45;100.00
25084;BME280;13075;55.682;37.564;2022-11-20T01:40:53;99627.28;;;-1.42;100.00
25084;BME280;13075;55.682;37.564;2022-11-20T01:43:19;99629.44;;;-1.47;100.00
25084;BME280;13075;55.682;37.564;2022-11-20T01:48:20;99637.63;;;-1.30;100.00
25084;BME280;13075;55.682;37.564;2022-11-20T01:50:48;99634.88;;;-1.39;100.00
25084;BME280;13075;55.682;37.564;2022-11-20T01:53:16;99634.41;;;-1.44;100.00
25084;BME280;13075;55.682;37.564;2022-11-20T01:55:53;99636.56;;;-1.49;100.00
25084;BME280;13075;55.682;37.564;2022-11-20T01:58:23;99651.13;;;-1.45;100.00
25084;BME280;13075;55.682;37.564;2022-11-20T02:00:51;99643.97;;;-1.54;100.00
25084;BME280;13075;55.682;37.564;2022-11-20T02:03:18;99655.38;;;-1.33;100.00
25084;BME280;13075;55.682;37.564;2022-11-20T02:05:48;99645.84;;;-1.34;100.00
25084;BME280;13075;55.682;37.564;2022-11-20T02:08:15;99655.59;;;-1.25;100.00
25084;BME280;13075;55.682;37.564;2022-11-20T02:10:42;99662.03;;;-1.18;100.00
25084;BME280;13075;55.682;37.564;2022-11-20T02:13:08;99667.28;;;-1.18;100.00
25084;BME280;13075;55.682;37.564;2022-11-20T02:15:53;99660.84;;;-1.25;100.00
25084;BME280;13075;55.682;37.564;2022-11-20T02:18:20;99661.84;;;-1.37;100.00
25084;BME280;13075;55.682;37.564;2022-11-20T02:20:49;99658.84;;;-1.44;100.00
25084;BME280;13075;55.682;37.564;2022-11-20T02:26:17;99670.06;;;-1.42;100.00
25084;BME280;13075;55.682;37.564;2022-11-20T02:28:43;99674.13;;;-1.49;100.00
25084;BME280;13075;55.682;37.564;2022-11-20T02:31:09;99676.66;;;-1.47;100.00
25084;BME280;13075;55.682;37.564;2022-11-20T02:33:35;99673.28;;;-1.38;100.00
25084;BME280;13075;55.682;37.564;2022-11-20T02:36:00;99683.78;;;-1.49;100.00
25084;BME280;13075;55.682;37.564;2022-11-20T02:38:26;99682.00;;;-1.38;100.00
25084;BME280;13075;55.682;37.564;2022-11-20T02:40:52;99682.22;;;-1.52;100.00
25084;BME280;13075;55.682;37.564;2022-11-20T02:43:17;99676.75;;;-1.60;100.00
25084;BME280;13075;55.682;37.564;2022-11-20T02:45:43;99679.75;;;-1.53;100.00
25084;BME280;13075;55.682;37.564;2022-11-20T02:48:08;99678.56;;;-1.60;100.00
25084;BME280;13075;55.682;37.564;2022-11-20T02:50:37;99675.81;;;-1.59;100.00
25084;BME280;13075;55.682;37.564;2022-11-20T02:53:03;99676.19;;;-1.63;100.00
25084;BME280;13075;55.682;37.564;2022-11-20T02:55:29;99676.03;;;-1.51;100.00
25084;BME280;13075;55.682;37.564;2022-11-20T02:57:54;99683.91;;;-1.51;100.00
25084;BME280;13075;55.682;37.564;2022-11-20T03:00:20;99678.28;;;-1.57;100.00
25084;BME280;13075;55.682;37.564;2022-11-20T03:02:45;99683.31;;;-1.43;100.00
25084;BME280;13075;55.682;37.564;2022-11-20T03:05:11;99676.75;;;-1.49;100.00
25084;BME280;13075;55.682;37.564;2022-11-20T03:07:37;99680.09;;;-1.47;100.00
25084;BME280;13075;55.682;37.564;2022-11-20T03:10:03;99680.69;;;-1.43;100.00
25084;BME280;13075;55.682;37.564;2022-11-20T03:12:29;99680.22;;;-1.59;100.00
25084;BME280;13075;55.682;37.564;2022-11-20T03:14:55;99672.56;;;-1.62;100.00
25084;BME280;13075;55.682;37.564;2022-11-20T03:17:20;99685.59;;;-1.61;100.00
25084;BME280;13075;55.682;37.564;2022-11-20T03:19:46;99690.59;;;-1.58;100.00
25084;BME280;13075;55.682;37.564;2022-11-20T03:22:11;99686.16;;;-1.46;100.00
25084;BME280;13075;55.682;37.564;2022-11-20T03:24:37;99687.94;;;-1.47;100.00
25084;BME280;13075;55.682;37.564;2022-11-20T03:27:03;99690.09;;;-1.52;100.00
25084;BME280;13075;55.682;37.564;2022-11-20T03:29:28;99684.72;;;-1.39;100.00
25084;BME280;13075;55.682;37.564;2022-11-20T03:31:54;99698.53;;;-1.26;100.00
25084;BME280;13075;55.682;37.564;2022-11-20T03:34:19;99697.25;;;-1.43;100.00
25084;BME280;13075;55.682;37.564;2022-11-20T03:36:45;99692.16;;;-1.55;100.00
25084;BME280;13075;55.682;37.564;2022-11-20T03:39:11;99681.91;;;-1.58;100.00
25084;BME280;13075;55.682;37.564;2022-11-20T03:41:38;99694.78;;;-1.55;100.00
25084;BME280;13075;55.682;37.564;2022-11-20T03:44:06;99691.88;;;-1.41;100.00
25084;BME280;13075;55.682;37.564;2022-11-20T03:46:32;99699.06;;;-1.32;100.00
25084;BME280;13075;55.682;37.564;2022-11-20T03:48:58;99687.25;;;-1.38;100.00
25084;BME280;13075;55.682;37.564;2022-11-20T03:51:26;99694.72;;;-1.22;100.00
25084;BME280;13075;55.682;37.564;2022-11-20T03:53:54;99706.31;;;-1.36;100.00
25084;BME280;13075;55.682;37.564;2022-11-20T03:56:23;99706.09;;;-1.33;100.00
25084;BME280;13075;55.682;37.564;2022-11-20T03:58:49;99707.72;;;-1.32;100.00
25084;BME280;13075;55.682;37.564;2022-11-20T04:01:17;99707.16;;;-1.46;100.00
25084;BME280;13075;55.682;37.564;2022-11-20T04:03:43;99713.25;;;-1.46;100.00
25084;BME280;13075;55.682;37.564;2022-11-20T04:06:12;99705.59;;;-1.49;100.00
25084;BME280;13075;55.682;37.564;2022-11-20T04:08:39;99709.41;;;-1.42;100.00
25084;BME280;13075;55.682;37.564;2022-11-20T04:11:19;99709.78;;;-1.46;100.00
25084;BME280;13075;55.682;37.564;2022-11-20T04:13:51;99712.50;;;-1.37;100.00
25084;BME280;13075;55.682;37.564;2022-11-20T04:16:17;99717.19;;;-1.40;100.00
25084;BME280;13075;55.682;37.564;2022-11-20T04:18:44;99724.94;;;-1.50;100.00
25084;BME280;13075;55.682;37.564;2022-11-20T04:21:10;99713.47;;;-1.49;100.00
25084;BME280;13075;55.682;37.564;2022-11-20T04:23:35;99728.75;;;-1.43;100.00
25084;BME280;13075;55.682;37.564;2022-11-20T04:26:08;99726.72;;;-1.50;100.00
25084;BME280;13075;55.682;37.564;2022-11-20T04:28:34;99732.69;;;-1.37;100.00
25084;BME280;13075;55.682;37.564;2022-11-20T04:31:09;99732.56;;;-1.24;100.00
25084;BME280;13075;55.682;37.564;2022-11-20T04:33:35;99733.25;;;-1.22;100.00
25084;BME280;13075;55.682;37.564;2022-11-20T04:38:35;99737.56;;;-1.33;100.00
25084;BME280;13075;55.682;37.564;2022-11-20T04:41:03;99740.75;;;-1.18;100.00
25084;BME280;13075;55.682;37.564;2022-11-20T04:43:29;99740.16;;;-1.10;100.00
25084;BME280;13075;55.682;37.564;2022-11-20T04:45:56;99748.97;;;-1.00;100.00
25084;BME280;13075;55.682;37.564;2022-11-20T04:48:23;99749.56;;;-1.08;100.00
25084;BME280;13075;55.682;37.564;2022-11-20T04:50:49;99761.28;;;-1.23;100.00
25084;BME280;13075;55.682;37.564;2022-11-20T04:53:15;99763.81;;;-1.21;100.00
25084;BME280;13075;55.682;37.564;2022-11-20T04:55:40;99757.22;;;-1.16;100.00
25084;BME280;13075;55.682;37.564;2022-11-20T04:58:06;99764.38;;;-1.18;100.00
25084;BME280;13075;55.682;37.564;2022-11-20T05:00:32;99756.97;;;-1.13;100.00
25084;BME280;13075;55.682;37.564;2022-11-20T05:02:58;99762.13;;;-1.22;100.00
25084;BME280;13075;55.682;37.564;2022-11-20T05:05:23;99772.88;;;-1.14;100.00
25084;BME280;13075;55.682;37.564;2022-11-20T05:07:49;99766.16;;;-1.07;100.00
25084;BME280;13075;55.682;37.564;2022-11-20T05:10:15;99768.69;;;-1.17;100.00
25084;BME280;13075;55.682;37.564;2022-11-20T05:12:40;99771.31;;;-1.28;100.00
25084;BME280;13075;55.682;37.564;2022-11-20T05:15:06;99780.03;;;-1.28;100.00
25084;BME280;13075;55.682;37.564;2022-11-20T05:17:32;99779.88;;;-1.26;100.00
25084;BME280;13075;55.682;37.564;2022-11-20T05:19:58;99779.56;;;-1.21;100.00
25084;BME280;13075;55.682;37.564;2022-11-20T05:22:23;99784.44;;;-1.17;100.00
25084;BME280;13075;55.682;37.564;2022-11-20T05:24:49;99780.97;;;-1.29;100.00
25084;BME280;13075;55.682;37.564;2022-11-20T05:27:15;99787.91;;;-1.28;100.00
25084;BME280;13075;55.682;37.564;2022-11-20T05:29:40;99793.38;;;-1.31;100.00
25084;BME280;13075;55.682;37.564;2022-11-20T05:32:06;99802.09;;;-1.30;100.00
25084;BME280;13075;55.682;37.564;2022-11-20T05:34:35;99785.97;;;-1.37;100.00
25084;BME280;13075;55.682;37.564;2022-11-20T05:37:01;99804.34;;;-1.37;100.00
25084;BME280;13075;55.682;37.564;2022-11-20T05:39:27;99809.59;;;-1.48;100.00
25084;BME280;13075;55.682;37.564;2022-11-20T05:41:53;99806.25;;;-1.39;100.00
25084;BME280;13075;55.682;37.564;2022-11-20T05:44:38;99808.28;;;-1.42;100.00
25084;BME280;13075;55.682;37.564;2022-11-20T05:47:05;99809.50;;;-1.35;100.00
25084;BME280;13075;55.682;37.564;2022-11-20T05:49:31;99809.59;;;-1.26;100.00
25084;BME280;13075;55.682;37.564;2022-11-20T05:51:57;99809.38;;;-1.45;100.00
25084;BME280;13075;55.682;37.564;2022-11-20T05:54:22;99827.00;;;-1.47;100.00
25084;BME280;13075;55.682;37.564;2022-11-20T05:56:48;99830.69;;;-1.49;100.00
25084;BME280;13075;55.682;37.564;2022-11-20T05:59:13;99825.81;;;-1.43;100.00
25084;BME280;13075;55.682;37.564;2022-11-20T06:01:39;99847.03;;;-1.46;100.00
25084;BME280;13075;55.682;37.564;2022-11-20T06:04:05;99850.72;;;-1.48;100.00
25084;BME280;13075;55.682;37.564;2022-11-20T06:06:30;99845.94;;;-1.54;100.00
25084;BME280;13075;55.682;37.564;2022-11-20T06:08:56;99842.13;;;-1.39;100.00
25084;BME280;13075;55.682;37.564;2022-11-20T06:11:21;99838.44;;;-1.37;100.00
25084;BME280;13075;55.682;37.564;2022-11-20T06:13:48;99838.56;;;-1.38;100.00
25084;BME280;13075;55.682;37.564;2022-11-20T06:16:16;99850.66;;;-1.24;100.00
25084;BME280;13075;55.682;37.564;2022-11-20T06:18:42;99851.47;;;-1.35;100.00
25084;BME280;13075;55.682;37.564;2022-11-20T06:21:14;99854.81;;;-1.33;100.00
25084;BME280;13075;55.682;37.564;2022-11-20T06:23:40;99858.50;;;-1.13;100.00
25084;BME280;13075;55.682;37.564;2022-11-20T06:26:08;99866.88;;;-1.08;100.00
25084;BME280;13075;55.682;37.564;2022-11-20T06:28:34;99875.72;;;-1.09;100.00
25084;BME280;13075;55.682;37.564;2022-11-20T06:31:00;99888.47;;;-1.27;100.00
25084;BME280;13075;55.682;37.564;2022-11-20T06:33:26;99894.09;;;-1.09;100.00
25084;BME280;13075;55.682;37.564;2022-11-20T06:35:56;99869.00;;;-1.13;100.00
25084;BME280;13075;55.682;37.564;2022-11-20T06:38:24;99885.13;;;-1.18;100.00
25084;BME280;13075;55.682;37.564;2022-11-20T06:40:49;99878.09;;;-1.06;100.00
25084;BME280;13075;55.682;37.564;2022-11-20T06:43:15;99874.38;;;-0.93;100.00
25084;BME280;13075;55.682;37.564;2022-11-20T06:45:40;99864.50;;;-0.89;100.00
25084;BME280;13075;55.682;37.564;2022-11-20T06:48:06;99863.66;;;-0.90;100.00
25084;BME280;13075;55.682;37.564;2022-11-20T06:50:31;99861.03;;;-1.12;100.00
25084;BME280;13075;55.682;37.564;2022-11-20T06:53:01;99865.69;;;-0.93;100.00
25084;BME280;13075;55.682;37.564;2022-11-20T06:55:27;99859.59;;;-0.83;100.00
25084;BME280;13075;55.682;37.564;2022-11-20T06:57:53;99858.03;;;-0.63;100.00
25084;BME280;13075;55.682;37.564;2022-11-20T07:00:18;99862.91;;;-0.70;100.00
25084;BME280;13075;55.682;37.564;2022-11-20T07:02:44;99853.84;;;-0.66;100.00
25084;BME280;13075;55.682;37.564;2022-11-20T07:05:09;99862.53;;;-0.54;100.00
25084;BME280;13075;55.682;37.564;2022-11-20T07:07:35;99850.84;;;-0.50;100.00
25084;BME280;13075;55.682;37.564;2022-11-20T07:10:00;99846.19;;;-0.57;100.00
25084;BME280;13075;55.682;37.564;2022-11-20T07:12:26;99852.50;;;-0.49;100.00
25084;BME280;13075;55.682;37.564;2022-11-20T07:14:52;99862.31;;;-0.51;100.00
25084;BME280;13075;55.682;37.564;2022-11-20T07:17:17;99861.72;;;-0.54;100.00
25084;BME280;13075;55.682;37.564;2022-11-20T07:19:43;99862.19;;;-0.60;100.00
25084;BME280;13075;55.682;37.564;2022-11-20T07:22:08;99864.94;;;-0.51;100.00
25084;BME280;13075;55.682;37.564;2022-11-20T07:24:34;99867.78;;;-0.43;100.00
25084;BME280;13075;55.682;37.564;2022-11-20T07:27:00;99871.09;;;-0.30;100.00
25084;BME280;13075;55.682;37.564;2022-11-20T07:29:26;99860.44;;;-0.28;100.00
25084;BME280;13075;55.682;37.564;2022-11-20T07:31:51;99862.88;;;-0.36;100.00
25084;BME280;13075;55.682;37.564;2022-11-20T07:34:17;99867.94;;;-0.67;100.00
25084;BME280;13075;55.682;37.564;2022-11-20T07:36:42;99881.16;;;-0.46;100.00
25084;BME280;13075;55.682;37.564;2022-11-20T07:39:08;99871.56;;;-0.36;100.00
25084;BME280;13075;55.682;37.564;2022-11-20T07:41:33;99875.97;;;-0.25;100.00
25084;BME280;13075;55.682;37.564;2022-11-20T07:43:59;99879.44;;;-0.25;100.00
25084;BME280;13075;55.682;37.564;2022-11-20T07:46:25;99882.78;;;-0.23;100.00
25084;BME280;13075;55.682;37.564;2022-11-20T07:48:50;99881.75;;;-0.31;100.00
25084;BME280;13075;55.682;37.564;2022-11-20T07:51:16;99884.31;;;-0.09;100.00
25084;BME280;13075;55.682;37.564;2022-11-20T07:53:41;99871.34;;;-0.33;100.00
25084;BME280;13075;55.682;37.564;2022-11-20T07:56:07;99881.22;;;-0.14;100.00
25084;BME280;13075;55.682;37.564;2022-11-20T07:58:32;99876.84;;;-0.36;100.00
25084;BME280;13075;55.682;37.564;2022-11-20T08:01:06;99867.41;;;-0.38;100.00
25084;BME280;13075;55.682;37.564;2022-11-20T08:03:33;99888.88;;;-0.22;100.00
25084;BME280;13075;55.682;37.564;2022-11-20T08:06:00;99897.22;;;-0.06;100.00
25084;BME280;13075;55.682;37.564;2022-11-20T08:08:28;99888.34;;;-0.05;100.00
25084;BME280;13075;55.682;37.564;2022-11-20T08:10:56;99885.56;;;0.08;100.00
25084;BME280;13075;55.682;37.564;2022-11-20T08:13:42;99896.09;;;0.08;100.00
25084;BME280;13075;55.682;37.564;2022-11-20T08:16:26;99908.59;;;-0.17;100.00
25084;BME280;13075;55.682;37.564;2022-11-20T08:18:51;99901.94;;;-0.32;100.00
25084;BME280;13075;55.682;37.564;2022-11-20T08:21:17;99887.72;;;-0.40;100.00
25084;BME280;13075;55.682;37.564;2022-11-20T08:23:42;99887.09;;;-0.22;100.00
25084;BME280;13075;55.682;37.564;2022-11-20T08:26:08;99892.72;;;-0.26;100.00
25084;BME280;13075;55.682;37.564;2022-11-20T08:28:33;99905.47;;;-0.11;100.00
25084;BME280;13075;55.682;37.564;2022-11-20T08:31:00;99908.56;;;-0.06;100.00
25084;BME280;13075;55.682;37.564;2022-11-20T08:33:25;99913.66;;;0.07;100.00
25084;BME280;13075;55.682;37.564;2022-11-20T08:35:51;99912.38;;;0.02;100.00
25084;BME280;13075;55.682;37.564;2022-11-20T08:38:17;99907.44;;;0.08;100.00
25084;BME280;13075;55.682;37.564;2022-11-20T08:40:42;99908.56;;;-0.06;100.00
25084;BME280;13075;55.682;37.564;2022-11-20T08:43:28;99919.63;;;0.09;100.00
25084;BME280;13075;55.682;37.564;2022-11-20T08:45:56;99914.09;;;0.23;100.00
25084;BME280;13075;55.682;37.564;2022-11-20T08:48:22;99903.75;;;0.31;100.00
25084;BME280;13075;55.682;37.564;2022-11-20T08:50:47;99920.97;;;0.35;100.00
25084;BME280;13075;55.682;37.564;2022-11-20T08:53:13;99915.72;;;0.35;100.00
25084;BME280;13075;55.682;37.564;2022-11-20T08:55:38;99930.78;;;0.33;100.00
25084;BME280;13075;55.682;37.564;2022-11-20T08:58:05;99934.88;;;0.26;100.00
25084;BME280;13075;55.682;37.564;2022-11-20T09:00:31;99940.22;;;0.36;100.00
25084;BME280;13075;55.682;37.564;2022-11-20T09:02:57;99949.06;;;0.35;100.00
25084;BME280;13075;55.682;37.564;2022-11-20T09:05:24;99950.34;;;0.20;100.00
25084;BME280;13075;55.682;37.564;2022-11-20T09:07:49;99959.84;;;0.32;100.00
25084;BME280;13075;55.682;37.564;2022-11-20T09:10:15;99959.53;;;0.25;100.00
25084;BME280;13075;55.682;37.564;2022-11-20T09:12:41;99956.09;;;0.45;100.00
25084;BME280;13075;55.682;37.564;2022-11-20T09:15:07;99968.81;;;0.29;100.00
25084;BME280;13075;55.682;37.564;2022-11-20T09:17:32;99976.00;;;0.38;100.00
25084;BME280;13075;55.682;37.564;2022-11-20T09:19:58;99975.25;;;0.36;100.00
25084;BME280;13075;55.682;37.564;2022-11-20T09:22:24;99980.41;;;0.38;100.00
25084;BME280;13075;55.682;37.564;2022-11-20T09:24:49;99988.09;;;0.19;100.00
25084;BME280;13075;55.682;37.564;2022-11-20T09:27:15;99992.25;;;0.32;100.00
25084;BME280;13075;55.682;37.564;2022-11-20T09:29:45;100000.53;;;0.28;100.00
25084;BME280;13075;55.682;37.564;2022-11-20T09:32:11;99999.56;;;0.29;100.00
25084;BME280;13075;55.682;37.564;2022-11-20T09:34:37;99999.56;;;0.29;100.00
25084;BME280;13075;55.682;37.564;2022-11-20T09:37:02;100007.72;;;0.26;100.00
25084;BME280;13075;55.682;37.564;2022-11-20T09:39:28;100009.97;;;0.30;100.00
25084;BME280;13075;55.682;37.564;2022-11-20T09:42:04;100007.28;;;0.41;100.00
25084;BME280;13075;55.682;37.564;2022-11-20T09:53:08;100009.75;;;0.22;100.00
25084;BME280;13075;55.682;37.564;2022-11-20T09:55:36;100010.13;;;0.18;100.00
25084;BME280;13075;55.682;37.564;2022-11-20T09:58:06;100018.13;;;0.16;100.00
25084;BME280;13075;55.682;37.564;2022-11-20T10:00:35;100020.38;;;0.21;100.00
25084;BME280;13075;55.682;37.564;2022-11-20T10:10:43;100029.09;;;0.32;100.00
25084;BME280;13075;55.682;37.564;2022-11-20T10:16:30;100019.97;;;0.47;100.00
25084;BME280;13075;55.682;37.564;2022-11-20T10:30:39;100025.06;;;0.60;100.00
25084;BME280;13075;55.682;37.564;2022-11-20T10:33:19;100026.16;;;0.57;100.00
25084;BME280;13075;55.682;37.564;2022-11-20T10:36:15;100038.81;;;0.63;100.00
25084;BME280;13075;55.682;37.564;2022-11-20T10:38:43;100031.00;;;0.73;100.00
25084;BME280;13075;55.682;37.564;2022-11-20T10:41:17;100029.00;;;0.66;100.00
25084;BME280;13075;55.682;37.564;2022-11-20T10:44:04;100033.19;;;0.57;100.00
25084;BME280;13075;55.682;37.564;2022-11-20T10:46:48;100029.03;;;0.54;100.00
25084;BME280;13075;55.682;37.564;2022-11-20T10:49:16;100034.88;;;0.58;100.00
25084;BME280;13075;55.682;37.564;2022-11-20T10:51:56;100046.50;;;0.55;100.00
25084;BME280;13075;55.682;37.564;2022-11-20T10:56:54;100055.50;;;0.42;100.00
25084;BME280;13075;55.682;37.564;2022-11-20T11:02:37;100047.28;;;0.35;100.00
25084;BME280;13075;55.682;37.564;2022-11-20T11:05:12;100057.66;;;0.37;100.00
25084;BME280;13075;55.682;37.564;2022-11-20T11:07:41;100053.84;;;0.41;100.00
25084;BME280;13075;55.682;37.564;2022-11-20T11:10:17;100054.66;;;0.41;100.00
25084;BME280;13075;55.682;37.564;2022-11-20T11:12:46;100069.41;;;0.33;100.00
25084;BME280;13075;55.682;37.564;2022-11-20T11:15:59;100060.91;;;0.40;100.00
25084;BME280;13075;55.682;37.564;2022-11-20T11:18:00;100065.56;;;0.37;100.00
25084;BME280;13075;55.682;37.564;2022-11-20T11:20:26;100062.69;;;0.40;100.00
25084;BME280;13075;55.682;37.564;2022-11-20T11:22:55;100070.25;;;0.33;100.00
25084;BME280;13075;55.682;37.564;2022-11-20T11:25:25;100064.84;;;0.35;100.00
25084;BME280;13075;55.682;37.564;2022-11-20T11:27:52;100067.47;;;0.35;100.00
25084;BME280;13075;55.682;37.564;2022-11-20T11:30:19;100068.09;;;0.27;100.00
25084;BME280;13075;55.682;37.564;2022-11-20T11:32:45;100071.69;;;0.26;100.00
25084;BME280;13075;55.682;37.564;2022-11-20T11:37:46;100070.50;;;0.19;100.00
25084;BME280;13075;55.682;37.564;2022-11-20T11:40:13;100065.00;;;0.22;100.00
25084;BME280;13075;55.682;37.564;2022-11-20T11:43:01;100065.59;;;0.15;100.00
25084;BME280;13075;55.682;37.564;2022-11-20T11:45:27;100073.25;;;0.07;100.00
25084;BME280;13075;55.682;37.564;2022-11-20T11:47:57;100073.50;;;0.26;100.00
25084;BME280;13075;55.682;37.564;2022-11-20T11:50:27;100064.16;;;0.33;100.00
25084;BME280;13075;55.682;37.564;2022-11-20T11:52:56;100064.84;;;0.35;100.00
25084;BME280;13075;55.682;37.564;2022-11-20T11:55:28;100073.50;;;0.26;100.00
25084;BME280;13075;55.682;37.564;2022-11-20T12:01:07;100086.41;;;0.07;100.00
25084;BME280;13075;55.682;37.564;2022-11-20T12:03:38;100089.75;;;0.20;100.00
25084;BME280;13075;55.682;37.564;2022-11-20T12:06:13;100079.00;;;0.23;100.00
25084;BME280;13075;55.682;37.564;2022-11-20T12:08:51;100085.09;;;0.12;100.00
25084;BME280;13075;55.682;37.564;2022-11-20T12:11:25;100090.00;;;0.28;100.00
25084;BME280;13075;55.682;37.564;2022-11-20T12:14:04;100082.34;;;0.14;100.00
25084;BME280;13075;55.682;37.564;2022-11-20T12:16:35;100082.56;;;0.22;100.00
25084;BME280;13075;55.682;37.564;2022-11-20T12:19:07;100077.91;;;0.14;100.00
25084;BME280;13075;55.682;37.564;2022-11-20T12:21:54;100081.16;;;0.18;100.00
25084;BME280;13075;55.682;37.564;2022-11-20T12:24:46;100076.47;;;0.32;100.00
25084;BME280;13075;55.682;37.564;2022-11-20T12:30:05;100077.31;;;0.33;100.00
25084;BME280;13075;55.682;37.564;2022-11-20T12:43:53;100081.03;;;0.19;100.00
25084;BME280;13075;55.682;37.564;2022-11-20T12:46:51;100079.34;;;0.18;100.00
25084;BME280;13075;55.682;37.564;2022-11-20T12:49:52;100083.19;;;0.14;100.00
25084;BME280;13075;55.682;37.564;2022-11-20T12:55:21;100101.47;;;0.05;100.00
25084;BME280;13075;55.682;37.564;2022-11-20T12:58:12;100094.06;;;-0.02;100.00
25084;BME280;13075;55.682;37.564;2022-11-20T13:00:51;100089.66;;;-0.01;100.00
25084;BME280;13075;55.682;37.564;2022-11-20T13:03:34;100096.81;;;-0.03;100.00
25084;BME280;13075;55.682;37.564;2022-11-20T13:08:41;100107.94;;;0.12;100.00
25084;BME280;13075;55.682;37.564;2022-11-20T13:19:13;100100.75;;;0.14;100.00
25084;BME280;13075;55.682;37.564;2022-11-20T13:21:47;100096.31;;;0.14;100.00
25084;BME280;13075;55.682;37.564;2022-11-20T13:27:17;100109.00;;;0.20;100.00
25084;BME280;13075;55.682;37.564;2022-11-20T13:30:24;100110.31;;;0.15;100.00
25084;BME280;13075;55.682;37.564;2022-11-20T13:35:36;100112.34;;;0.11;100.00
25084;BME280;13075;55.682;37.564;2022-11-20T13:38:06;100122.88;;;0.11;100.00
25084;BME280;13075;55.682;37.564;2022-11-20T13:40:36;100123.38;;;0.05;100.00
25084;BME280;13075;55.682;37.564;2022-11-20T13:43:26;100118.22;;;0.04;100.00
25084;BME280;13075;55.682;37.564;2022-11-20T13:46:01;100111.16;;;-0.07;100.00
25084;BME280;13075;55.682;37.564;2022-11-20T13:48:39;100113.19;;;-0.11;100.00
25084;BME280;13075;55.682;37.564;2022-11-20T13:54:22;100117.03;;;-0.04;100.00
25084;BME280;13075;55.682;37.564;2022-11-20T13:59:57;100133.50;;;-0.02;100.00
25084;BME280;13075;55.682;37.564;2022-11-20T14:02:25;100134.44;;;-0.03;100.00
25084;BME280;13075;55.682;37.564;2022-11-20T14:04:54;100127.06;;;-0.09;100.00
25084;BME280;13075;55.682;37.564;2022-11-20T14:07:25;100126.34;;;-0.11;100.00
25084;BME280;13075;55.682;37.564;2022-11-20T14:09:56;100123.84;;;-0.01;100.00
25084;BME280;13075;55.682;37.564;2022-11-20T14:12:32;100134.00;;;0.04;100.00
25084;BME280;13075;55.682;37.564;2022-11-20T14:14:59;100134.81;;;-0.07;100.00
25084;BME280;13075;55.682;37.564;2022-11-20T14:19:56;100148.59;;;0.08;100.00
25084;BME280;13075;55.682;37.564;2022-11-20T14:22:25;100153.00;;;0.18;100.00
25084;BME280;13075;55.682;37.564;2022-11-20T14:25:24;100145.13;;;0.07;100.00
25084;BME280;13075;55.682;37.564;2022-11-20T14:27:57;100149.66;;;0.16;100.00
25084;BME280;13075;55.682;37.564;2022-11-20T14:30:48;100155.88;;;0.15;100.00